Airfield :
LOGIN :

Register | Disclaimer

   EN    FR    IT 

 










Legend :    VFR   Marginal VFR   IFR   Intensive IFR   Very Intensive IFR
Visi :
Ceiling :
>= 8 km
>= 3000ft
5 to 8 km
1000 to 3000 ft
1500m to 5 km
500 to 1000 ft
800 to 1500m
200 to 500 ft
< 800m
< 200 ft
Symbols :   Thunderstorms  Fog  Heavy snow  Heavy precipitations  Wind > 20 kt
SIGMETs :     Misc.  Thunderstorms  Icing  Turbulence  Mountain Waves  Volcanic Ashes






- Airport Elevation : 1363 ft


ETIC - Grafenwohr Army Air Field

CURRENT METAR :
  • 211355Z AUTO 07005KT 9999 BKN012 BKN027 OVC040 04/01 A3002 RMK AO2 DZE02 SLP180 P0000 T00400009 $

EXPIRED METARs :
  • 211347Z AUTO 06004KT 9999 BKN012 BKN027 OVC040 04/01 A3001 RMK AO2 DZE02 CIG 012V026 SLP177 $
  • 211302Z AUTO 06006KT 9999 SCT011 OVC034 04/02 A3001 RMK AO2 DZE02 SLP176 $
  • 211236Z AUTO 06006KT 9999 SCT009 BKN021 OVC029 04/02 A3001 RMK AO2 DZE1155DZB01E21 CIG 009V021 BKN V OVC SLP176 $
  • 211201Z AUTO 05005KT 9999 -DZ BKN007 OVC019 03/02 A3000 RMK AO2 DZE1155DZB01 SLP173 $
  • 211138Z AUTO 06005KT 9999 -DZ BKN007 OVC018 03/02 A2999 RMK AO2 DZB38 BKN V OVC SLP170 $
  • 211055Z AUTO 06005KT 9999 OVC006 02/01 A2999 RMK AO2 RAE10DZB10E41 SLP171 P0000 T00220010 $
  • 210955Z AUTO 07004KT 8000 -RA BR OVC005 02/01 A2998 RMK AO2 SNE23RAB23 SLP167 P0000 T00200010 $
  • 210953Z AUTO 07004KT 8000 -RA BR OVC005 02/01 A2998 RMK AO2 SNE23RAB23 SLP167 $
  • 210923Z AUTO 06004KT 6000 -RA BR OVC004 02/01 A2998 RMK AO2 SNE23RAB23 SLP167 $

Expired Forecast.



MET'MAP, your aeronautical weather chart ! - Copyright ORBIFLY December 2007 - Disclaimer

ORBIFLY MET'MAP TEAM :

Programming & Development : Alexandra Zaïnal
Original concept : Baudouin d'Aumeries
Technical & hardware support : Manuel Goepfert
Assistance : Marc-Olivier Méhu




SOURCES & CREDITS :

   NOAA